Time;durP1;ratioP1;P1;durP2;ratioP2;P2;SDS_P1;SDS_P2;PMS_P1;PMS_P2;Temp;Humidity;BMP_temperature;BMP_pressure;BME280_temperature;BME280_humidity;BME280_pressure;Samples;Min_cycle;Max_cycle;Signal;HPM_P1;HPM_P2
2022/05/14 00:01:01;;;;;;;6.87;6.10;;;12.00;99.90;;;-141.84;64.34;18590.56;5011222;28;20600;-65
2022/05/14 00:03:31;;;;;;;7.90;6.30;;;12.00;99.90;;;-141.84;64.28;18578.38;5011183;28;20325;-63
2022/05/14 00:06:04;;;;;;;7.57;5.87;;;12.00;99.90;;;-141.84;64.55;18584.47;5010946;28;20313;-64
2022/05/14 00:08:33;;;;;;;8.20;5.93;;;12.00;99.90;;;-141.84;64.85;18572.25;5011501;28;20530;-66
2022/05/14 00:13:48;;;;;;;7.97;6.07;;;11.90;99.90;;;-141.84;64.98;18578.38;5011637;28;20193;-64
2022/05/14 00:16:18;;;;;;;6.93;6.23;;;11.90;99.90;;;-141.84;65.12;18537.72;5010779;28;20649;-64
2022/05/14 00:18:47;;;;;;;6.67;5.90;;;11.90;99.90;;;-141.84;65.15;18562.09;5011259;28;20314;-64
2022/05/14 00:21:16;;;;;;;6.37;5.50;;;11.90;99.90;;;-141.84;65.32;18537.72;5011056;28;20305;-64
2022/05/14 00:23:45;;;;;;;7.60;5.80;;;11.90;99.90;;;-141.84;65.73;18558.03;5010679;28;20229;-65
2022/05/14 00:26:13;;;;;;;7.77;5.67;;;11.90;99.90;;;-141.84;65.34;18547.88;5010621;28;20223;-65
2022/05/14 00:28:42;;;;;;;6.90;5.60;;;11.90;99.90;;;-141.84;65.44;18535.69;5011421;28;20289;-64
2022/05/14 00:31:11;;;;;;;5.90;5.40;;;11.90;99.90;;;-141.84;65.12;18564.13;5010515;28;20233;-64
2022/05/14 00:33:39;;;;;;;6.97;5.40;;;11.90;99.90;;;-141.84;66.01;18558.03;5010709;28;20304;-64
2022/05/14 00:36:07;;;;;;;6.33;5.73;;;11.90;99.90;;;-141.84;65.74;18558.03;5010883;28;20226;-64
2022/05/14 00:38:35;;;;;;;6.17;5.40;;;11.80;99.90;;;-141.84;65.42;18517.41;5022028;28;20234;-64
2022/05/14 00:41:07;;;;;;;5.90;5.40;;;11.80;99.90;;;-141.84;65.72;18535.69;5030324;28;20729;-63
2022/05/14 00:43:50;;;;;;;5.60;5.10;;;11.80;99.90;;;-141.84;65.21;18547.88;5030997;28;20277;-64
2022/05/14 00:46:23;;;;;;;5.80;5.30;;;11.80;99.90;;;-141.84;65.39;18547.88;5030285;28;20599;-63
2022/05/14 00:48:54;;;;;;;6.23;5.17;;;11.80;99.90;;;-141.84;65.43;18523.50;5030733;28;20233;-63
2022/05/14 00:51:27;;;;;;;5.13;4.73;;;11.70;99.90;;;-141.84;65.02;18527.56;5030424;28;20276;-65
2022/05/14 00:54:02;;;;;;;6.70;4.90;;;11.70;99.90;;;-141.84;65.70;18543.81;5016208;28;20309;-64
2022/05/14 00:56:38;;;;;;;7.73;5.40;;;11.70;99.90;;;-141.84;65.47;18515.38;5010653;28;20586;-64
2022/05/14 00:59:13;;;;;;;6.67;5.47;;;11.70;99.90;;;-141.84;64.06;18570.22;5010842;28;20205;-66
2022/05/14 01:01:44;;;;;;;5.93;5.33;;;11.70;99.90;;;-141.84;64.24;18576.31;5011386;28;20182;-63
2022/05/14 01:04:14;;;;;;;5.73;5.13;;;11.80;99.90;;;-141.84;63.85;18562.09;5011267;28;20267;-64
2022/05/14 01:06:53;;;;;;;5.97;5.27;;;11.80;99.90;;;-141.84;64.91;18539.75;5010938;28;20242;-63
2022/05/14 01:09:21;;;;;;;7.90;5.47;;;11.80;99.90;;;-141.84;65.30;18545.84;5010294;28;20226;-64
2022/05/14 01:11:51;;;;;;;5.97;4.97;;;11.70;99.90;;;-141.84;66.48;18491.00;5010770;28;20238;-63
2022/05/14 01:14:19;;;;;;;10.37;5.33;;;11.70;99.90;;;-141.84;65.23;18535.69;5010601;28;20310;-64
2022/05/14 01:16:51;;;;;;;8.10;5.33;;;11.70;99.90;;;-141.84;65.18;18549.91;5010627;28;20246;-64
2022/05/14 01:19:20;;;;;;;5.87;4.90;;;11.70;99.90;;;-141.84;65.88;18517.41;5010762;28;20325;-65
2022/05/14 01:22:05;;;;;;;8.30;5.60;;;11.60;99.90;;;-141.84;66.73;18493.03;5010621;28;20318;-64
2022/05/14 01:27:29;;;;;;;8.30;5.37;;;11.50;99.90;;;-141.84;67.12;18507.25;5010734;28;20702;-64
2022/05/14 01:29:57;;;;;;;5.70;4.60;;;11.50;99.90;;;-141.84;67.20;18497.09;5010346;28;20238;-65
2022/05/14 01:32:25;;;;;;;6.70;5.00;;;11.50;99.90;;;-141.84;67.16;18507.25;5010485;28;20249;-63
2022/05/14 01:34:54;;;;;;;7.50;5.00;;;11.50;99.90;;;-141.84;66.49;18497.09;5010373;28;20229;-64
2022/05/14 01:37:24;;;;;;;11.33;4.67;;;11.50;99.90;;;-141.84;66.55;18486.94;5010329;28;20785;-64
2022/05/14 01:39:53;;;;;;;6.80;4.77;;;11.60;99.90;;;-141.84;66.43;18527.56;5026024;28;20316;-63
2022/05/14 01:42:21;;;;;;;5.70;4.27;;;11.60;99.90;;;-141.84;66.27;18560.06;5029857;28;20253;-64
2022/05/14 01:44:51;;;;;;;6.37;4.37;;;11.70;99.90;;;-141.84;66.18;18535.69;5029823;28;20226;-63
2022/05/14 01:47:19;;;;;;;7.67;5.00;;;11.70;99.90;;;-141.84;65.17;18519.44;5032000;28;20312;-63
2022/05/14 01:49:47;;;;;;;8.50;4.33;;;11.80;99.90;;;-141.84;64.55;18592.59;5033916;28;20616;-63
2022/05/14 01:52:15;;;;;;;9.30;4.50;;;11.90;99.90;;;-141.84;64.94;18537.72;5033246;28;20222;-63
2022/05/14 01:54:43;;;;;;;8.27;4.37;;;12.00;99.90;;;-141.84;64.51;18564.13;5032916;28;20320;-64
2022/05/14 01:57:11;;;;;;;8.23;4.70;;;12.00;99.90;;;-141.84;65.54;18529.59;5033290;28;20603;-63
2022/05/14 01:59:39;;;;;;;7.53;4.60;;;12.00;99.90;;;-141.84;65.04;18521.47;5033594;28;20330;-63
2022/05/14 02:02:11;;;;;;;6.97;4.60;;;12.00;99.90;;;-141.84;65.34;18543.81;5032945;28;20202;-63
2022/05/14 02:04:39;;;;;;;6.30;4.97;;;12.00;99.90;;;-141.84;65.01;18543.81;5033627;28;20418;-65
2022/05/14 02:07:07;;;;;;;6.17;4.30;;;12.10;99.90;;;-141.84;64.87;18529.59;5033080;28;20689;-64
2022/05/14 02:09:36;;;;;;;11.17;4.80;;;12.10;99.90;;;-141.84;64.81;18549.91;5033268;28;20226;-65
2022/05/14 02:12:05;;;;;;;7.23;4.50;;;12.10;99.90;;;-141.84;65.37;18568.19;5033051;28;20237;-64
2022/05/14 02:14:33;;;;;;;8.90;4.57;;;12.00;99.90;;;-141.84;65.85;18549.91;5033114;28;20312;-64
2022/05/14 02:17:01;;;;;;;9.67;4.63;;;12.00;99.90;;;-141.84;65.53;18527.56;5032909;28;20230;-62
2022/05/14 02:19:31;;;;;;;9.13;4.33;;;11.80;99.90;;;-141.84;65.19;18553.97;5033565;28;20737;-63
2022/05/14 02:21:59;;;;;;;6.13;4.47;;;11.90;99.90;;;-141.84;65.32;18511.31;5032694;28;20236;-64
2022/05/14 02:24:27;;;;;;;7.60;4.20;;;11.90;99.90;;;-141.84;65.80;18539.75;5032438;28;20250;-63
2022/05/14 02:26:55;;;;;;;5.33;4.47;;;11.90;99.90;;;-141.84;65.88;18513.34;5032594;28;20234;-64
2022/05/14 02:29:24;;;;;;;5.73;4.00;;;11.90;99.90;;;-141.84;66.31;18521.47;5033081;28;20257;-65
2022/05/14 02:31:52;;;;;;;8.07;4.40;;;11.80;99.90;;;-141.84;65.41;18515.38;5032790;28;20676;-63
2022/05/14 02:34:20;;;;;;;6.00;4.10;;;11.90;99.90;;;-141.84;65.57;18541.78;5032628;28;20260;-65
2022/05/14 02:36:50;;;;;;;6.27;4.00;;;11.90;99.90;;;-141.84;65.55;18521.47;5032444;28;20309;-64
2022/05/14 02:39:17;;;;;;;9.70;4.80;;;11.90;99.90;;;-141.84;65.43;18556.00;5032310;28;20647;-63
2022/05/14 02:41:45;;;;;;;7.73;4.30;;;11.90;99.90;;;-141.84;64.57;18537.72;5032304;28;20729;-65
2022/05/14 02:44:13;;;;;;;7.63;4.40;;;11.90;99.90;;;-141.84;65.62;18533.66;5032493;28;20202;-63
2022/05/14 02:46:41;;;;;;;6.93;4.50;;;11.90;99.90;;;-141.84;66.11;18517.41;5032616;28;20324;-63
2022/05/14 02:49:09;;;;;;;6.17;4.57;;;11.90;99.90;;;-141.84;65.65;18531.63;5032601;28;20320;-64
2022/05/14 02:51:38;;;;;;;6.67;4.60;;;11.90;99.90;;;-141.84;66.26;18515.38;5032022;28;20230;-64
2022/05/14 02:54:08;;;;;;;6.63;4.43;;;11.80;99.90;;;-141.84;66.54;18511.31;5032003;28;20226;-63
2022/05/14 02:56:36;;;;;;;7.53;4.73;;;11.70;99.90;;;-141.84;66.82;18470.69;5032175;28;20249;-65
2022/05/14 02:59:10;;;;;;;12.57;4.90;;;11.60;99.90;;;-141.84;67.05;18484.91;5032576;28;20285;-65
2022/05/14 03:01:47;;;;;;;9.00;4.40;;;11.60;99.90;;;-141.84;66.73;18460.53;5032489;28;20183;-64
2022/05/14 03:04:19;;;;;;;7.20;4.60;;;11.60;99.90;;;-141.84;65.91;18525.53;5031733;28;20234;-66
2022/05/14 03:06:47;;;;;;;9.90;4.90;;;11.60;99.90;;;-141.84;66.20;18501.16;5031858;28;20228;-64
2022/05/14 03:09:17;;;;;;;7.93;4.40;;;11.60;99.90;;;-141.84;66.24;18488.97;5032155;28;20230;-66
2022/05/14 03:11:45;;;;;;;7.53;4.50;;;11.70;99.90;;;-141.84;66.64;18517.41;5031779;28;20739;-64
2022/05/14 03:14:14;;;;;;;7.83;4.50;;;11.60;99.90;;;-141.84;66.54;18499.13;5031740;28;20754;-63
2022/05/14 03:16:44;;;;;;;10.73;4.83;;;11.60;99.90;;;-141.84;67.14;18476.78;5032206;28;20309;-65
2022/05/14 03:19:14;;;;;;;7.97;4.77;;;11.70;99.90;;;-141.84;66.82;18493.03;5031527;28;20638;-64
2022/05/14 03:21:43;;;;;;;6.93;5.00;;;11.60;99.90;;;-141.84;66.49;18523.50;5031625;28;20229;-64
2022/05/14 03:24:12;;;;;;;12.00;4.90;;;11.70;99.90;;;-141.84;66.12;18499.13;5031421;28;20222;-63
2022/05/14 03:26:43;;;;;;;8.20;4.73;;;11.70;99.90;;;-141.84;66.44;18517.41;5031553;28;20230;-65
2022/05/14 03:29:12;;;;;;;9.47;5.27;;;11.70;99.90;;;-141.84;66.89;18501.16;5031875;28;20723;-62
2022/05/14 03:31:41;;;;;;;6.23;4.57;;;11.60;99.90;;;-141.84;67.44;18470.69;5031837;28;20201;-63
2022/05/14 03:34:11;;;;;;;6.20;4.90;;;11.60;99.90;;;-141.84;67.03;18501.16;5031319;28;20257;-64
2022/05/14 03:36:40;;;;;;;8.43;5.20;;;11.70;99.90;;;-141.84;67.12;18521.47;5031276;28;20312;-63
2022/05/14 03:39:09;;;;;;;9.27;5.27;;;11.70;99.90;;;-141.84;67.66;18480.84;5031375;28;20222;-63
2022/05/14 03:41:37;;;;;;;6.93;4.97;;;11.60;99.90;;;-141.84;68.50;18448.34;5031106;28;20229;-65
2022/05/14 03:44:07;;;;;;;9.73;5.23;;;11.60;99.90;;;-141.84;68.25;18462.56;5031359;28;20289;-63
2022/05/14 03:46:35;;;;;;;8.33;5.03;;;11.50;99.90;;;-141.84;68.33;18482.88;5031369;28;20329;-67
2022/05/14 03:49:04;;;;;;;8.77;4.83;;;11.50;99.90;;;-141.84;67.96;18458.50;5031426;28;20681;-63
2022/05/14 03:51:33;;;;;;;7.23;4.90;;;11.50;99.90;;;-141.84;67.66;18495.06;5031009;28;20327;-64
2022/05/14 03:54:01;;;;;;;5.97;4.80;;;11.50;99.90;;;-141.84;66.67;18493.03;5030743;28;20326;-64
2022/05/14 03:56:29;;;;;;;6.43;5.17;;;11.50;99.90;;;-141.84;66.22;18493.03;5031018;28;20230;-63
2022/05/14 03:58:58;;;;;;;8.13;4.90;;;11.60;99.90;;;-141.84;67.11;18488.97;5031766;28;20662;-65
2022/05/14 04:01:27;;;;;;;6.53;5.03;;;11.60;99.90;;;-141.84;66.70;18493.03;5031122;28;20249;-65
2022/05/14 04:03:55;;;;;;;6.17;4.20;;;11.60;99.90;;;-141.84;66.96;18486.94;5031071;28;20234;-63
2022/05/14 04:06:23;;;;;;;5.83;4.50;;;11.60;99.90;;;-141.84;67.26;18509.28;5011206;28;20237;-64
2022/05/14 04:08:51;;;;;;;8.80;4.80;;;11.60;99.90;;;-141.84;66.48;18499.13;5010797;28;20765;-63
2022/05/14 04:11:19;;;;;;;8.07;5.30;;;11.70;99.90;;;-141.84;66.20;18495.06;5010991;28;20230;-64
2022/05/14 04:13:47;;;;;;;7.23;4.43;;;11.70;99.90;;;-141.84;66.05;18513.34;5011287;28;20293;-63
2022/05/14 04:16:15;;;;;;;6.17;4.57;;;11.80;99.90;;;-141.84;65.28;18525.53;5023140;28;20240;-63
2022/05/14 04:18:44;;;;;;;5.10;4.30;;;11.80;99.90;;;-141.84;65.31;18525.53;5030980;28;20250;-63
2022/05/14 04:21:12;;;;;;;5.13;4.50;;;11.80;99.90;;;-141.84;65.86;18525.53;5030622;28;20237;-64
2022/05/14 04:23:40;;;;;;;5.80;3.97;;;11.80;99.90;;;-141.84;66.23;18513.34;5030502;28;20276;-65
2022/05/14 04:26:08;;;;;;;5.43;4.37;;;11.80;99.90;;;-141.84;65.39;18521.47;5030574;28;20241;-64
2022/05/14 04:28:38;;;;;;;6.03;4.30;;;11.90;99.90;;;-141.84;65.64;18537.72;5030785;28;20668;-65
2022/05/14 04:31:06;;;;;;;8.10;4.43;;;11.90;99.90;;;-141.84;64.84;18580.41;5030325;28;20312;-64
2022/05/14 04:33:35;;;;;;;5.87;4.40;;;11.90;99.90;;;-141.84;64.07;18564.13;5030136;28;20808;-64
2022/05/14 04:36:04;;;;;;;9.97;4.50;;;11.90;99.90;;;-141.84;63.90;18558.03;5030452;28;20263;-65
2022/05/14 04:38:32;;;;;;;6.30;4.63;;;12.00;99.90;;;-141.84;63.86;18553.97;5030088;28;20680;-64
2022/05/14 04:41:00;;;;;;;5.23;4.13;;;12.00;99.90;;;-141.84;63.99;18560.06;5030832;28;20190;-64
2022/05/14 04:43:31;;;;;;;6.53;4.33;;;12.10;99.90;;;-141.84;63.73;18568.19;5030778;28;20224;-64
2022/05/14 04:45:59;;;;;;;6.77;5.00;;;12.10;99.90;;;-141.84;62.69;18578.38;5029624;28;20230;-64
2022/05/14 04:48:27;;;;;;;6.27;4.30;;;12.20;99.90;;;-141.84;62.12;18633.22;5029945;28;20234;-64
2022/05/14 04:50:55;;;;;;;6.33;4.13;;;12.20;99.90;;;-141.84;62.06;18606.81;5030454;28;20230;-65
2022/05/14 04:53:25;;;;;;;5.90;3.67;;;12.30;99.90;;;-141.84;57.68;18710.44;5029665;28;20228;-64
2022/05/14 04:55:53;;;;;;;4.47;3.63;;;12.90;99.90;;;-141.84;53.99;18875.00;5030770;28;20293;-63
2022/05/14 04:58:21;;;;;;;5.33;3.50;;;13.60;99.90;;;-141.84;51.33;19003.00;5029861;28;20226;-64
2022/05/14 05:00:49;;;;;;;4.03;3.60;;;14.50;99.90;;;-141.84;48.26;19149.31;5030396;28;20316;-64
2022/05/14 05:03:19;;;;;;;6.43;3.40;;;15.20;99.90;;;-141.84;46.02;19261.06;5029945;28;20225;-64
2022/05/14 05:05:52;;;;;;;6.03;3.65;;;15.60;99.90;;;-141.84;44.57;19344.41;5029874;28;20230;-64
2022/05/14 05:08:22;;;;;;;3.97;3.58;;;16.10;99.90;;;-141.84;44.76;19322.03;5029946;28;20248;-63
2022/05/14 05:10:52;;;;;;;5.13;3.70;;;16.00;99.90;;;-141.84;44.19;19372.84;5031244;28;20202;-63
2022/05/14 05:13:28;;;;;;;5.60;3.67;;;16.10;99.90;;;-141.84;43.59;19374.88;5029449;28;20309;-64
2022/05/14 05:15:56;;;;;;;5.65;3.90;;;16.40;99.90;;;-141.84;44.79;19334.22;5029843;28;20232;-63
2022/05/14 05:18:24;;;;;;;3.97;3.60;;;16.30;99.90;;;-141.84;44.65;19313.91;5029914;28;20325;-64
2022/05/14 05:20:56;;;;;;;4.75;4.03;;;16.20;99.90;;;-141.84;45.95;19240.75;5030373;28;20230;-63
2022/05/14 05:23:26;;;;;;;5.65;4.38;;;15.90;99.90;;;-141.84;48.15;19122.91;5033537;28;20724;-62
2022/05/14 05:25:57;;;;;;;4.40;4.00;;;15.60;99.90;;;-141.84;49.58;19076.16;5034151;28;20212;-63
2022/05/14 05:28:26;;;;;;;6.70;4.35;;;15.20;99.90;;;-141.84;50.12;19053.81;5033836;28;20682;-63
2022/05/14 05:30:54;;;;;;;4.45;4.05;;;15.30;99.90;;;-141.84;51.49;18998.94;5033713;28;20237;-63
2022/05/14 05:33:26;;;;;;;7.17;4.93;;;15.00;99.90;;;-141.84;52.42;18944.09;5033404;28;20237;-63
2022/05/14 05:35:54;;;;;;;6.10;4.22;;;15.00;99.90;;;-141.84;52.35;18942.06;5033583;28;20240;-63
2022/05/14 05:38:22;;;;;;;5.63;3.97;;;15.00;99.90;;;-141.84;52.35;18956.28;5033240;28;20652;-63
2022/05/14 05:40:52;;;;;;;4.72;4.00;;;15.00;99.90;;;-141.84;52.33;18935.97;5034386;28;20217;-64
2022/05/14 05:43:21;;;;;;;6.47;4.37;;;15.10;99.90;;;-141.84;52.06;18988.78;5033009;28;20247;-63
2022/05/14 05:45:50;;;;;;;4.93;4.20;;;14.90;99.90;;;-141.84;52.68;18905.47;5032851;28;20226;-64
2022/05/14 05:48:18;;;;;;;6.27;4.50;;;14.90;99.90;;;-141.84;53.16;18938.00;5032848;28;20241;-63
2022/05/14 05:50:48;;;;;;;5.87;4.90;;;14.90;99.90;;;-141.84;52.79;18944.09;5033667;28;20240;-64
2022/05/14 05:53:17;;;;;;;4.53;4.07;;;14.80;99.90;;;-141.84;53.05;18960.34;5032784;28;20194;-62
2022/05/14 05:58:32;;;;;;;5.33;4.10;;;15.00;99.90;;;-141.84;52.77;19000.97;5013358;28;20207;-63
2022/05/14 06:01:00;;;;;;;4.63;4.10;;;15.00;99.90;;;-141.84;52.62;18935.97;5013214;28;20226;-63
2022/05/14 06:03:28;;;;;;;4.70;4.20;;;15.10;99.90;;;-141.84;53.38;18935.97;5012911;28;20740;-62
2022/05/14 06:05:56;;;;;;;5.03;4.40;;;15.20;99.90;;;-141.84;52.46;18968.47;5013265;28;20333;-64
2022/05/14 06:08:25;;;;;;;5.93;4.50;;;15.40;99.90;;;-141.84;51.21;19025.38;5012530;28;20309;-63
2022/05/14 06:10:53;;;;;;;5.07;4.57;;;15.60;99.90;;;-141.84;51.52;19072.09;5013948;28;20207;-64
2022/05/14 06:13:21;;;;;;;5.30;4.47;;;15.80;99.90;;;-141.84;50.96;19017.25;5012949;28;20231;-64
2022/05/14 06:15:52;;;;;;;4.70;4.27;;;15.90;99.90;;;-141.84;50.50;19086.31;5012878;28;20731;-63
2022/05/14 06:18:20;;;;;;;6.10;4.47;;;16.10;99.90;;;-141.84;50.49;19066.00;5013019;28;20223;-65
2022/05/14 06:20:48;;;;;;;5.80;4.60;;;16.10;99.90;;;-141.84;50.93;19049.75;5012919;28;20305;-63
2022/05/14 06:23:16;;;;;;;6.07;4.75;;;16.20;99.90;;;-141.84;50.48;19080.22;5012735;28;20285;-63
2022/05/14 06:25:44;;;;;;;4.90;4.47;;;16.10;99.90;;;-141.84;50.67;19078.19;5013218;28;20289;-63
2022/05/14 06:28:12;;;;;;;5.37;4.20;;;16.20;99.90;;;-141.84;51.15;19033.50;5012284;28;20742;-63
2022/05/14 06:30:43;;;;;;;5.15;4.40;;;16.20;99.90;;;-141.84;50.76;19078.19;5012794;28;20258;-64
2022/05/14 06:33:15;;;;;;;7.90;4.82;;;16.30;99.90;;;-141.84;50.87;19041.63;5012161;28;20317;-63
2022/05/14 06:35:45;;;;;;;7.60;4.70;;;16.40;99.90;;;-141.84;50.78;19096.47;5012197;28;20756;-64
2022/05/14 06:38:14;;;;;;;6.20;4.78;;;16.40;99.90;;;-141.84;50.61;19088.34;5014403;28;20296;-63
2022/05/14 06:40:43;;;;;;;5.70;3.95;;;16.50;99.90;;;-141.84;51.04;19074.13;5032860;28;20260;-63
2022/05/14 06:43:11;;;;;;;4.80;4.30;;;16.70;99.90;;;-141.84;50.08;19100.53;5032189;28;20230;-63
2022/05/14 06:45:39;;;;;;;5.72;4.88;;;16.80;99.90;;;-141.84;49.54;19153.38;5031739;28;20230;-63
2022/05/14 06:48:07;;;;;;;6.25;4.88;;;16.90;99.90;;;-141.84;49.00;19165.56;5031834;28;20681;-64
2022/05/14 06:50:43;;;;;;;6.15;4.75;;;16.80;99.90;;;-141.84;49.71;19126.97;5032336;28;20482;-64
2022/05/14 06:53:13;;;;;;;9.05;5.03;;;16.80;99.90;;;-141.84;49.67;19133.06;5031875;28;20186;-63
2022/05/14 06:55:43;;;;;;;5.15;4.55;;;16.90;99.90;;;-141.84;49.29;19153.38;5032765;28;20206;-64
2022/05/14 06:58:17;;;;;;;8.57;5.47;;;17.00;99.90;;;-141.84;49.69;19157.44;5031666;28;20233;-64
2022/05/14 07:00:46;;;;;;;7.97;5.30;;;17.10;99.90;;;-141.84;49.32;19151.34;5031884;28;20257;-63
2022/05/14 07:08:48;;;;;;;8.05;5.10;;;17.30;99.90;;;-141.84;49.18;19159.47;5031505;28;20261;-63
2022/05/14 07:11:16;;;;;;;8.40;4.93;;;17.30;99.90;;;-141.84;49.12;19179.78;5031939;28;20202;-62
2022/05/14 07:13:44;;;;;;;5.78;5.28;;;17.40;99.90;;;-141.84;49.19;19183.84;5031990;28;20608;-63
2022/05/14 07:16:15;;;;;;;8.75;5.50;;;17.40;99.90;;;-141.84;48.74;19187.91;5031258;28;20230;-63
2022/05/14 07:18:44;;;;;;;7.75;4.90;;;17.50;99.90;;;-141.84;49.66;19133.06;5031584;28;20605;-63
2022/05/14 07:21:14;;;;;;;5.90;5.28;;;17.50;99.90;;;-141.84;48.88;19171.66;5031781;28;20253;-63
2022/05/14 07:23:41;;;;;;;7.53;5.28;;;17.60;99.90;;;-141.84;49.30;19159.47;5031497;28;20304;-64
2022/05/14 07:26:10;;;;;;;5.85;4.60;;;17.60;99.90;;;-141.84;49.53;19183.84;5031291;28;20284;-63
2022/05/14 07:28:39;;;;;;;8.70;4.90;;;17.60;99.90;;;-141.84;47.69;19220.44;5031956;28;20287;-62
2022/05/14 07:31:07;;;;;;;7.65;5.38;;;17.80;99.90;;;-141.84;47.25;19232.63;5031257;28;20671;-64
2022/05/14 07:33:37;;;;;;;7.15;4.75;;;17.80;99.90;;;-141.84;47.62;19236.69;5031293;28;20226;-64
2022/05/14 07:36:14;;;;;;;9.63;4.70;;;17.80;99.90;;;-141.84;48.26;19200.13;5031114;28;20305;-64
2022/05/14 07:38:44;;;;;;;7.82;4.60;;;17.80;99.90;;;-141.84;47.03;19236.69;5030971;28;20309;-63
2022/05/14 07:41:14;;;;;;;6.50;4.88;;;17.90;99.90;;;-141.84;47.60;19248.88;5031632;28;20186;-64
2022/05/14 07:43:48;;;;;;;7.32;4.95;;;17.80;99.90;;;-141.84;46.46;19240.75;5031632;28;20186;-63
2022/05/14 07:46:23;;;;;;;8.32;4.47;;;17.90;99.90;;;-141.84;45.88;19338.28;5030125;28;20345;-64
2022/05/14 07:48:54;;;;;;;5.97;4.72;;;18.10;99.90;;;-141.84;45.99;19297.66;5030856;28;20292;-63
2022/05/14 07:51:25;;;;;;;5.35;4.10;;;18.20;99.90;;;-141.84;46.60;19297.66;5031404;28;20326;-64
2022/05/14 07:53:54;;;;;;;6.80;4.65;;;18.20;99.90;;;-141.84;44.96;19338.28;5030836;28;20229;-64
2022/05/14 07:56:23;;;;;;;6.47;4.63;;;18.30;99.90;;;-141.84;45.31;19346.44;5030855;28;20226;-64
2022/05/14 07:58:51;;;;;;;7.63;4.20;;;18.30;99.90;;;-141.84;45.03;19405.34;5031175;28;20230;-64
2022/05/14 08:01:19;;;;;;;8.27;4.72;;;18.30;99.90;;;-141.84;44.44;19350.50;5030451;28;20310;-63
2022/05/14 08:03:48;;;;;;;7.07;4.43;;;18.40;99.90;;;-141.84;44.69;19397.22;5030704;28;20226;-64
2022/05/14 08:06:17;;;;;;;6.57;5.03;;;18.40;99.90;;;-141.84;44.35;19378.94;5030762;28;20317;-64
2022/05/14 08:08:46;;;;;;;6.68;4.53;;;18.40;99.90;;;-141.84;44.12;19380.97;5030324;28;20245;-64
2022/05/14 08:11:14;;;;;;;7.90;4.57;;;18.50;99.90;;;-141.84;43.78;19421.63;5031018;28;20222;-64
2022/05/14 08:13:43;;;;;;;7.18;4.00;;;18.50;99.90;;;-141.84;44.16;19403.31;5031000;28;20212;-64
2022/05/14 08:16:11;;;;;;;8.07;4.80;;;18.60;99.90;;;-141.84;43.78;19411.44;5030067;28;20309;-63
2022/05/14 08:18:39;;;;;;;6.25;4.70;;;18.60;99.90;;;-141.84;43.71;19378.94;5029998;28;20226;-63
2022/05/14 08:26:40;;;;;;;6.80;3.55;;;18.60;99.90;;;-141.84;44.50;19368.78;5030431;28;20329;-64
2022/05/14 08:29:08;;;;;;;8.30;5.88;;;18.60;99.90;;;-141.84;42.98;19358.63;5030297;28;20244;-64
2022/05/14 08:31:36;;;;;;;6.53;5.70;;;18.60;99.90;;;-141.84;42.64;19439.91;5031080;28;20287;-63
2022/05/14 08:34:04;;;;;;;7.93;5.00;;;18.70;99.90;;;-141.84;43.56;19399.25;5030064;28;20277;-64
2022/05/14 08:36:32;;;;;;;7.10;5.25;;;18.60;99.90;;;-141.84;43.45;19411.44;5030190;28;20244;-64
2022/05/14 08:39:02;;;;;;;6.32;4.93;;;18.70;99.90;;;-141.84;43.71;19433.81;5029771;28;20772;-64
2022/05/14 08:41:32;;;;;;;7.47;4.95;;;18.70;99.90;;;-141.84;43.49;19431.78;5030564;28;20240;-64
2022/05/14 08:44:05;;;;;;;7.53;4.85;;;18.70;99.90;;;-141.84;43.33;19425.69;5029964;28;20670;-62
2022/05/14 08:46:37;;;;;;;7.78;5.55;;;18.90;99.90;;;-141.84;41.73;19490.72;5030451;28;20293;-64
2022/05/14 08:49:15;;;;;;;8.50;4.85;;;19.00;99.90;;;-141.84;41.83;19500.88;5030291;28;20230;-64
2022/05/14 08:51:49;;;;;;;7.65;5.78;;;19.10;99.90;;;-141.84;42.46;19474.44;5030367;28;20312;-63
2022/05/14 08:54:19;;;;;;;9.75;5.65;;;19.10;99.90;;;-141.84;42.45;19482.56;5029716;28;20221;-64
2022/05/14 08:57:00;;;;;;;8.35;5.13;;;19.00;99.90;;;-141.84;42.08;19464.28;5032635;28;20229;-64
2022/05/14 08:59:52;;;;;;;8.93;5.20;;;18.90;99.90;;;-141.84;42.63;19478.50;5033823;28;20226;-64
2022/05/14 09:02:24;;;;;;;9.20;4.82;;;19.00;99.90;;;-141.84;42.86;19456.16;5034205;28;20226;-63
2022/05/14 09:04:59;;;;;;;10.45;5.10;;;18.90;99.90;;;-141.84;41.85;19511.03;5034530;28;20212;-66
2022/05/14 09:07:28;;;;;;;6.22;4.88;;;18.90;99.90;;;-141.84;41.89;19511.03;5033885;28;20232;-64
2022/05/14 09:09:59;;;;;;;8.93;5.10;;;19.00;99.90;;;-141.84;41.65;19509.00;5033726;28;20329;-64
2022/05/14 09:12:31;;;;;;;10.13;4.97;;;19.10;99.90;;;-141.84;41.44;19498.84;5033673;28;20232;-64
2022/05/14 09:15:04;;;;;;;6.53;4.50;;;19.10;99.90;;;-141.84;41.65;19476.47;5033909;28;20236;-64
2022/05/14 09:17:33;;;;;;;9.20;5.18;;;19.20;99.90;;;-141.84;41.68;19482.56;5033468;28;20229;-64
2022/05/14 09:20:01;;;;;;;9.43;4.38;;;19.10;99.90;;;-141.84;42.26;19506.97;5033939;28;20208;-64
2022/05/14 09:22:44;;;;;;;7.65;4.07;;;19.10;99.90;;;-141.84;41.95;19504.94;5034434;28;20209;-64
2022/05/14 09:25:25;;;;;;;6.30;4.28;;;19.20;99.90;;;-141.84;41.48;19537.44;5033957;28;20309;-63
2022/05/14 09:27:58;;;;;;;7.80;4.47;;;19.20;99.90;;;-141.84;41.94;19504.94;5033732;28;20230;-63
2022/05/14 09:30:34;;;;;;;6.82;4.20;;;19.20;99.90;;;-141.84;41.51;19541.50;5033604;28;20333;-63
2022/05/14 09:33:04;;;;;;;6.50;4.22;;;19.20;99.90;;;-141.84;41.53;19551.69;5033835;28;20229;-63
2022/05/14 09:35:35;;;;;;;6.70;4.10;;;19.30;99.90;;;-141.84;41.85;19543.53;5033597;28;20304;-64
2022/05/14 09:38:13;;;;;;;8.25;4.20;;;19.40;99.90;;;-141.84;41.56;19565.91;5033599;28;20198;-62
2022/05/14 09:40:43;;;;;;;10.95;4.47;;;19.50;99.90;;;-141.84;40.92;19606.53;5033904;28;20681;-64
2022/05/14 09:43:28;;;;;;;7.75;4.18;;;19.70;99.90;;;-141.84;40.83;19592.31;5033524;28;20236;-64
2022/05/14 09:46:03;;;;;;;8.38;4.90;;;19.80;99.90;;;-141.84;39.81;19647.19;5033609;28;20249;-63
2022/05/14 09:48:36;;;;;;;7.32;4.05;;;20.00;99.90;;;-141.84;40.19;19626.88;5033346;28;20304;-64
2022/05/14 09:51:08;;;;;;;6.15;3.70;;;19.90;99.90;;;-141.84;38.91;19714.25;5033126;28;20230;-63
2022/05/14 09:53:41;;;;;;;6.70;3.75;;;20.10;99.90;;;-141.84;39.47;19653.28;5032545;28;20595;-65
2022/05/14 09:56:40;;;;;;;5.85;3.88;;;20.00;99.90;;;-141.84;40.26;19622.81;5033064;28;20217;-63
2022/05/14 09:59:37;;;;;;;6.93;4.00;;;19.80;99.90;;;-141.84;39.63;19626.88;5032981;28;20190;-63
2022/05/14 10:02:15;;;;;;;7.90;3.95;;;19.80;99.90;;;-141.84;39.43;19649.22;5013954;28;20671;-63
2022/05/14 10:05:07;;;;;;;9.55;4.32;;;19.80;99.90;;;-141.84;39.46;19665.47;5013855;28;20220;-63
2022/05/14 10:07:44;;;;;;;5.75;3.30;;;19.80;99.90;;;-141.84;39.75;19687.84;5012683;28;20203;-62
2022/05/14 10:10:32;;;;;;;5.47;3.72;;;20.00;99.90;;;-141.84;39.47;19716.28;5013002;28;20226;-64
2022/05/14 10:13:12;;;;;;;5.80;3.40;;;20.00;99.90;;;-141.84;38.34;19726.44;5013315;28;20230;-64
2022/05/14 10:15:51;;;;;;;9.50;3.50;;;20.20;99.90;;;-141.84;38.53;19785.38;5012873;28;20224;-63
2022/05/14 10:18:45;;;;;;;9.85;3.65;;;20.40;99.90;;;-141.84;37.69;19826.03;5012785;28;20234;-64
2022/05/14 10:21:26;;;;;;;6.57;3.58;;;20.70;99.90;;;-141.84;38.01;19789.44;5012642;28;20752;-64
2022/05/14 10:27:27;;;;;;;7.78;3.72;;;20.60;99.90;;;-141.84;37.79;19785.38;5012903;28;20744;-66
2022/05/14 10:30:14;;;;;;;6.05;3.55;;;20.50;99.90;;;-141.84;37.46;19815.88;5012731;28;20746;-66
2022/05/14 10:32:42;;;;;;;6.35;3.20;;;20.60;99.90;;;-141.84;37.60;19807.75;5013140;28;20226;-66
2022/05/14 10:35:19;;;;;;;5.90;3.28;;;20.70;99.90;;;-141.84;37.59;19797.59;5012775;28;20213;-65
2022/05/14 10:37:51;;;;;;;5.53;3.10;;;20.50;99.90;;;-141.84;36.45;19856.53;5017660;28;20186;-65
2022/05/14 10:40:30;;;;;;;7.80;3.10;;;20.70;99.90;;;-141.84;36.32;19919.53;5032250;28;20257;-66
2022/05/14 10:43:20;;;;;;;6.40;3.28;;;20.90;99.90;;;-141.84;36.21;19911.41;5032918;28;20309;-66